Time;durP1;ratioP1;P1;durP2;ratioP2;P2;SDS_P1;SDS_P2;PMS_P1;PMS_P2;Temp;Humidity;BMP_temperature;BMP_pressure;BME280_temperature;BME280_humidity;BME280_pressure;Samples;Min_cycle;Max_cycle;Signal;HPM_P1;HPM_P2
2022/10/27 00:00:38;;;;;;;1.38;1.27;;;;;;;;;;5051110;28;20075;-85
2022/10/27 00:03:04;;;;;;;1.55;1.45;;;;;;;;;;5051376;28;20353;-85
2022/10/27 00:05:31;;;;;;;3.25;2.38;;;;;;;;;;5051255;28;20110;-85
2022/10/27 00:07:57;;;;;;;2.25;2.15;;;;;;;;;;5050899;28;20574;-85
2022/10/27 00:10:25;;;;;;;1.48;1.38;;;;;;;;;;5054636;28;20048;-85
2022/10/27 00:12:52;;;;;;;1.35;1.25;;;;;;;;;;5055064;28;20053;-85
2022/10/27 00:15:18;;;;;;;1.52;1.42;;;;;;;;;;5054697;28;20053;-85
2022/10/27 00:17:44;;;;;;;1.23;1.00;;;;;;;;;;5054197;28;20127;-85
2022/10/27 00:20:12;;;;;;;1.33;1.15;;;;;;;;;;5054726;28;20049;-85
2022/10/27 00:22:38;;;;;;;1.60;1.38;;;;;;;;;;5054682;28;20115;-85
2022/10/27 00:25:05;;;;;;;1.17;1.17;;;;;;;;;;5054752;28;20057;-85
2022/10/27 00:27:33;;;;;;;2.67;2.08;;;;;;;;;;5054500;28;20070;-85
2022/10/27 00:29:59;;;;;;;2.50;2.25;;;;;;;;;;5054367;28;20061;-85
2022/10/27 00:32:26;;;;;;;1.52;1.42;;;;;;;;;;5054833;28;20052;-85
2022/10/27 00:34:52;;;;;;;2.45;2.35;;;;;;;;;;5054413;28;20056;-85
2022/10/27 00:37:19;;;;;;;1.13;1.10;;;;;;;;;;5054292;28;20546;-85
2022/10/27 00:39:45;;;;;;;1.83;1.73;;;;;;;;;;5054551;28;20049;-85
2022/10/27 00:42:12;;;;;;;1.33;1.23;;;;;;;;;;5054333;28;20053;-85
2022/10/27 00:44:41;;;;;;;2.38;2.28;;;;;;;;;;5054431;28;20065;-85
2022/10/27 00:47:11;;;;;;;2.30;2.20;;;;;;;;;;5053754;28;20045;-85
2022/10/27 00:49:39;;;;;;;1.33;1.23;;;;;;;;;;5054192;28;20483;-85
2022/10/27 00:52:07;;;;;;;1.63;1.35;;;;;;;;;;5054069;28;20424;-85
2022/10/27 00:54:37;;;;;;;2.97;2.88;;;;;;;;;;5054387;28;20065;-85
2022/10/27 00:57:04;;;;;;;1.60;1.55;;;;;;;;;;5054138;28;20090;-85
2022/10/27 00:59:30;;;;;;;1.83;1.60;;;;;;;;;;5053942;28;20126;-84
2022/10/27 01:01:58;;;;;;;2.10;2.00;;;;;;;;;;5053983;28;20102;-85
2022/10/27 01:04:29;;;;;;;1.55;1.45;;;;;;;;;;5053938;28;20527;-85
2022/10/27 01:06:55;;;;;;;2.97;2.78;;;;;;;;;;5053716;28;20150;-85
2022/10/27 01:09:22;;;;;;;1.52;1.48;;;;;;;;;;5055564;28;20450;-85
2022/10/27 01:11:48;;;;;;;3.83;1.73;;;;;;;;;;5074125;28;20056;-85
2022/10/27 01:14:15;;;;;;;2.70;2.55;;;;;;;;;;5073013;28;20052;-85
2022/10/27 01:16:48;;;;;;;1.05;1.00;;;;;;;;;;5073576;28;20447;-85
2022/10/27 01:19:26;;;;;;;0.98;0.98;;;;;;;;;;5073054;28;20052;-85
2022/10/27 01:22:00;;;;;;;1.92;1.80;;;;;;;;;;5073519;28;20495;-85
2022/10/27 01:24:41;;;;;;;1.50;1.10;;;;;;;;;;5073456;28;20048;-85
2022/10/27 01:27:08;;;;;;;2.47;2.38;;;;;;;;;;5073647;28;20040;-85
2022/10/27 01:29:58;;;;;;;2.15;1.85;;;;;;;;;;5073024;28;20562;-85
2022/10/27 01:32:28;;;;;;;1.48;1.40;;;;;;;;;;5073267;28;20110;-85
2022/10/27 01:34:57;;;;;;;1.88;1.75;;;;;;;;;;5073247;28;20048;-85
2022/10/27 01:37:27;;;;;;;1.85;1.17;;;;;;;;;;5073292;28;20049;-85
2022/10/27 01:39:56;;;;;;;2.17;2.05;;;;;;;;;;5068350;28;20095;-85
2022/10/27 01:42:27;;;;;;;1.25;1.15;;;;;;;;;;5053339;28;20045;-85
2022/10/27 01:44:55;;;;;;;2.20;2.08;;;;;;;;;;5053177;28;20053;-85
2022/10/27 01:47:22;;;;;;;1.83;1.63;;;;;;;;;;5053286;28;20053;-85
2022/10/27 01:49:51;;;;;;;1.55;1.23;;;;;;;;;;5052960;28;20554;-85
2022/10/27 01:52:36;;;;;;;4.15;1.80;;;;;;;;;;5052938;28;20505;-85
2022/10/27 01:55:03;;;;;;;2.13;2.03;;;;;;;;;;5053033;28;20114;-85
2022/10/27 01:57:32;;;;;;;1.35;1.33;;;;;;;;;;5053151;28;20053;-85
2022/10/27 02:00:02;;;;;;;1.42;1.33;;;;;;;;;;5053095;28;20044;-85
2022/10/27 02:02:33;;;;;;;1.73;1.63;;;;;;;;;;5052752;28;20061;-85
2022/10/27 02:05:04;;;;;;;1.35;1.33;;;;;;;;;;5052972;28;20500;-85
2022/10/27 02:07:36;;;;;;;1.45;1.35;;;;;;;;;;5052542;28;20547;-85
2022/10/27 02:10:07;;;;;;;2.33;1.90;;;;;;;;;;5052784;28;20044;-85
2022/10/27 02:12:35;;;;;;;3.53;3.33;;;;;;;;;;5052688;28;20095;-86
2022/10/27 02:15:03;;;;;;;1.13;1.10;;;;;;;;;;5052624;28;20044;-85
2022/10/27 02:17:31;;;;;;;3.33;3.13;;;;;;;;;;5052294;28;20061;-85
2022/10/27 02:19:58;;;;;;;2.35;2.25;;;;;;;;;;5052435;28;20135;-85
2022/10/27 02:22:28;;;;;;;1.55;1.45;;;;;;;;;;5052428;28;20492;-85
2022/10/27 02:24:54;;;;;;;2.05;1.60;;;;;;;;;;5052531;28;20590;-85
2022/10/27 02:27:25;;;;;;;2.33;2.20;;;;;;;;;;5052347;28;20103;-85
2022/10/27 02:29:53;;;;;;;1.92;1.83;;;;;;;;;;5052247;28;20060;-85
2022/10/27 02:32:21;;;;;;;1.80;1.70;;;;;;;;;;5051615;28;20099;-86
2022/10/27 02:34:49;;;;;;;2.13;1.92;;;;;;;;;;5052519;28;20091;-85
2022/10/27 02:37:18;;;;;;;1.27;1.10;;;;;;;;;;5052039;28;20103;-85
2022/10/27 02:39:45;;;;;;;2.35;2.25;;;;;;;;;;5052040;28;20061;-85
2022/10/27 02:42:12;;;;;;;1.17;1.08;;;;;;;;;;5052231;28;20048;-85
2022/10/27 02:44:38;;;;;;;2.20;2.10;;;;;;;;;;5051986;28;20056;-85
2022/10/27 02:47:05;;;;;;;1.98;1.88;;;;;;;;;;5051975;28;20456;-85
2022/10/27 02:49:31;;;;;;;1.75;1.65;;;;;;;;;;5051895;28;20098;-85
2022/10/27 02:51:58;;;;;;;2.58;2.00;;;;;;;;;;5051963;28;20162;-85
2022/10/27 02:54:24;;;;;;;1.45;1.35;;;;;;;;;;5051997;28;20048;-85
2022/10/27 02:56:52;;;;;;;1.40;1.38;;;;;;;;;;5052119;28;20501;-85
2022/10/27 02:59:19;;;;;;;0.85;0.85;;;;;;;;;;5051925;28;20052;-85
2022/10/27 03:01:45;;;;;;;1.60;1.50;;;;;;;;;;5051782;28;20193;-85
2022/10/27 03:04:12;;;;;;;1.60;1.50;;;;;;;;;;5052116;28;20052;-85
2022/10/27 03:06:38;;;;;;;2.05;1.95;;;;;;;;;;5051970;28;20049;-85
2022/10/27 03:09:05;;;;;;;1.63;1.52;;;;;;;;;;5051633;28;20044;-85
2022/10/27 03:11:31;;;;;;;1.42;1.08;;;;;;;;;;5051952;28;20098;-85
2022/10/27 03:13:59;;;;;;;1.50;1.40;;;;;;;;;;5051634;28;20639;-85
2022/10/27 03:16:25;;;;;;;1.15;1.05;;;;;;;;;;5051520;28;20110;-85
2022/10/27 03:18:52;;;;;;;2.03;1.92;;;;;;;;;;5051709;28;20049;-85
2022/10/27 03:21:18;;;;;;;1.65;1.15;;;;;;;;;;5051771;28;20111;-85
2022/10/27 03:23:45;;;;;;;1.27;1.17;;;;;;;;;;5067372;28;20052;-85
2022/10/27 03:26:11;;;;;;;1.70;1.40;;;;;;;;;;5062564;28;20103;-85
2022/10/27 03:28:38;;;;;;;2.20;1.30;;;;;;;;;;5051474;28;20053;-85
2022/10/27 03:31:06;;;;;;;1.92;1.48;;;;;;;;;;5051530;28;20053;-85
2022/10/27 03:33:32;;;;;;;2.35;2.15;;;;;;;;;;5051777;28;20049;-85
2022/10/27 03:35:59;;;;;;;7.35;2.17;;;;;;;;;;5051798;28;20061;-85
2022/10/27 03:38:26;;;;;;;2.47;2.08;;;;;;;;;;5051330;28;20459;-85
2022/10/27 03:40:52;;;;;;;3.28;1.02;;;;;;;;;;5051720;28;20455;-85
2022/10/27 03:43:19;;;;;;;2.05;0.98;;;;;;;;;;5053974;28;20048;-85
2022/10/27 03:45:47;;;;;;;2.42;2.22;;;;;;;;;;5062461;28;20049;-85
2022/10/27 03:48:15;;;;;;;2.97;2.33;;;;;;;;;;5067112;28;20121;-85
2022/10/27 03:50:44;;;;;;;2.05;1.95;;;;;;;;;;5071406;28;20091;-85
2022/10/27 03:53:11;;;;;;;1.52;1.40;;;;;;;;;;5054837;28;20796;-86
2022/10/27 03:55:37;;;;;;;1.85;1.48;;;;;;;;;;5055030;28;20053;-85
2022/10/27 03:58:04;;;;;;;3.95;1.90;;;;;;;;;;5053653;28;20056;-85
2022/10/27 04:00:32;;;;;;;1.77;1.67;;;;;;;;;;5054548;28;20057;-85
2022/10/27 04:02:59;;;;;;;1.48;1.38;;;;;;;;;;5055042;28;20054;-85
2022/10/27 04:05:26;;;;;;;2.70;2.47;;;;;;;;;;5054663;28;20056;-86
2022/10/27 04:07:53;;;;;;;3.85;1.92;;;;;;;;;;5053873;28;20053;-85
2022/10/27 04:10:19;;;;;;;2.08;1.98;;;;;;;;;;5053922;28;20106;-85
2022/10/27 04:12:49;;;;;;;1.98;1.88;;;;;;;;;;5054708;28;20045;-86
2022/10/27 04:15:16;;;;;;;7.47;2.42;;;;;;;;;;5053918;28;20049;-85
2022/10/27 04:17:42;;;;;;;1.70;1.55;;;;;;;;;;5053734;28;20053;-85
2022/10/27 04:20:09;;;;;;;2.45;1.63;;;;;;;;;;5055873;28;20497;-86
2022/10/27 04:22:37;;;;;;;1.60;1.50;;;;;;;;;;5067654;28;20044;-85
2022/10/27 04:25:04;;;;;;;2.47;2.28;;;;;;;;;;5072511;28;20520;-86
2022/10/27 04:27:30;;;;;;;3.03;2.80;;;;;;;;;;5062231;28;20452;-85
2022/10/27 04:29:57;;;;;;;1.83;1.40;;;;;;;;;;5065083;28;20060;-85
2022/10/27 04:32:23;;;;;;;2.88;2.67;;;;;;;;;;5063376;28;20546;-85
2022/10/27 04:34:50;;;;;;;1.92;1.67;;;;;;;;;;5062401;28;20045;-85
2022/10/27 04:37:16;;;;;;;1.38;1.27;;;;;;;;;;5062132;28;20048;-85
2022/10/27 04:39:44;;;;;;;1.30;1.27;;;;;;;;;;5062287;28;20497;-85
2022/10/27 04:42:11;;;;;;;2.50;1.33;;;;;;;;;;5065102;28;20053;-85
2022/10/27 04:44:37;;;;;;;2.22;1.33;;;;;;;;;;5062466;28;20048;-85
2022/10/27 04:47:04;;;;;;;1.48;1.38;;;;;;;;;;5064700;28;20052;-85
2022/10/27 04:49:30;;;;;;;2.75;1.80;;;;;;;;;;5057544;28;20094;-86
2022/10/27 04:51:57;;;;;;;1.65;1.55;;;;;;;;;;5057718;28;20049;-85
2022/10/27 04:54:23;;;;;;;1.75;1.65;;;;;;;;;;5053082;28;20104;-86
2022/10/27 04:56:51;;;;;;;1.83;1.73;;;;;;;;;;5053998;28;20103;-85
2022/10/27 04:59:18;;;;;;;2.50;2.05;;;;;;;;;;5053869;28;20045;-86
2022/10/27 05:01:44;;;;;;;2.03;1.92;;;;;;;;;;5054002;28;20459;-85
2022/10/27 05:04:11;;;;;;;1.80;1.70;;;;;;;;;;5054023;28;20090;-85
2022/10/27 05:06:37;;;;;;;1.30;1.25;;;;;;;;;;5053593;28;20102;-86
2022/10/27 05:09:04;;;;;;;1.10;0.90;;;;;;;;;;5053647;28;20358;-86
2022/10/27 05:11:30;;;;;;;1.50;1.40;;;;;;;;;;5053905;28;20110;-85
2022/10/27 05:13:58;;;;;;;2.63;2.42;;;;;;;;;;5053767;28;20107;-86
2022/10/27 05:16:24;;;;;;;1.90;1.58;;;;;;;;;;5053810;28;20098;-86
2022/10/27 05:18:51;;;;;;;1.75;1.60;;;;;;;;;;5053688;28;20061;-86
2022/10/27 05:21:17;;;;;;;2.05;1.95;;;;;;;;;;5053675;28;20090;-86
2022/10/27 05:23:44;;;;;;;2.22;1.98;;;;;;;;;;5053462;28;20562;-86
2022/10/27 05:26:10;;;;;;;1.42;1.33;;;;;;;;;;5053469;28;20048;-86
2022/10/27 05:28:37;;;;;;;2.17;1.98;;;;;;;;;;5053306;28;20045;-86
2022/10/27 05:31:05;;;;;;;2.92;2.35;;;;;;;;;;5053508;28;20049;-86
2022/10/27 05:33:31;;;;;;;1.45;1.35;;;;;;;;;;5053452;28;20103;-85
2022/10/27 05:35:58;;;;;;;2.80;2.60;;;;;;;;;;5072498;28;20098;-86
2022/10/27 05:38:24;;;;;;;2.58;2.42;;;;;;;;;;5053124;28;20489;-86
2022/10/27 05:40:54;;;;;;;3.38;3.08;;;;;;;;;;5071632;28;20048;-85
2022/10/27 05:43:21;;;;;;;3.85;1.42;;;;;;;;;;5053421;28;20049;-86
2022/10/27 05:45:47;;;;;;;2.17;2.08;;;;;;;;;;5053109;28;20114;-86
2022/10/27 05:48:15;;;;;;;2.03;1.83;;;;;;;;;;5053162;28;20049;-86
2022/10/27 05:50:42;;;;;;;2.88;2.67;;;;;;;;;;5053111;28;20045;-86
2022/10/27 05:53:08;;;;;;;11.15;2.45;;;;;;;;;;5052972;28;20107;-86
2022/10/27 05:55:34;;;;;;;1.95;1.83;;;;;;;;;;5052904;28;20052;-86
2022/10/27 05:58:02;;;;;;;2.65;2.53;;;;;;;;;;5053132;28;20111;-85
2022/10/27 06:00:30;;;;;;;4.20;2.80;;;;;;;;;;5052601;28;20064;-86
2022/10/27 06:02:56;;;;;;;1.88;1.77;;;;;;;;;;5052924;28;20056;-86
2022/10/27 06:05:24;;;;;;;2.75;1.75;;;;;;;;;;5052944;28;20049;-86
2022/10/27 06:07:51;;;;;;;1.95;1.83;;;;;;;;;;5051726;28;20045;-85
2022/10/27 06:10:17;;;;;;;0.70;0.70;;;;;;;;;;5052788;28;20467;-86
2022/10/27 06:12:44;;;;;;;5.53;2.63;;;;;;;;;;5052795;28;20053;-85
2022/10/27 06:15:11;;;;;;;1.80;1.58;;;;;;;;;;5052749;28;20053;-86
2022/10/27 06:17:37;;;;;;;4.10;2.65;;;;;;;;;;5052627;28;20045;-86
2022/10/27 06:20:04;;;;;;;1.38;1.27;;;;;;;;;;5052534;28;20106;-86
2022/10/27 06:22:32;;;;;;;3.08;2.58;;;;;;;;;;5052147;28;20144;-86
2022/10/27 06:24:58;;;;;;;2.03;1.92;;;;;;;;;;5052541;28;20049;-86
2022/10/27 06:27:25;;;;;;;3.85;2.65;;;;;;;;;;5052319;28;20484;-86
2022/10/27 06:29:51;;;;;;;3.58;3.33;;;;;;;;;;5052355;28;20099;-86
2022/10/27 06:32:18;;;;;;;5.10;3.63;;;;;;;;;;5052375;28;20044;-86
2022/10/27 06:34:44;;;;;;;12.50;4.07;;;;;;;;;;5052115;28;20052;-86
2022/10/27 06:37:11;;;;;;;4.38;2.97;;;;;;;;;;5052025;28;20090;-85
2022/10/27 06:39:40;;;;;;;3.25;2.58;;;;;;;;;;5052110;28;20053;-86
2022/10/27 06:42:06;;;;;;;3.72;3.05;;;;;;;;;;5052232;28;20408;-86
2022/10/27 06:44:33;;;;;;;6.20;4.20;;;;;;;;;;5051899;28;20056;-86
2022/10/27 06:46:59;;;;;;;7.13;4.55;;;;;;;;;;5052078;28;20381;-86
2022/10/27 06:49:26;;;;;;;2.83;2.63;;;;;;;;;;5051967;28;20048;-86
2022/10/27 06:51:53;;;;;;;4.68;3.67;;;;;;;;;;5051839;28;20102;-86
2022/10/27 06:54:20;;;;;;;3.67;3.05;;;;;;;;;;5051966;28;20079;-86
2022/10/27 06:56:48;;;;;;;3.63;3.28;;;;;;;;;;5052126;28;20045;-85
2022/10/27 06:59:14;;;;;;;3.88;3.28;;;;;;;;;;5055353;28;20114;-85
2022/10/27 07:01:40;;;;;;;3.75;3.45;;;;;;;;;;5054129;28;20053;-85
2022/10/27 07:04:07;;;;;;;2.05;1.95;;;;;;;;;;5047721;28;20501;-86
2022/10/27 07:06:33;;;;;;;3.03;2.83;;;;;;;;;;5051540;28;20111;-86
2022/10/27 07:09:00;;;;;;;2.70;2.50;;;;;;;;;;5051334;28;20056;-86
2022/10/27 07:11:27;;;;;;;3.22;2.88;;;;;;;;;;5051302;28;20785;-86
2022/10/27 07:13:55;;;;;;;1.58;1.48;;;;;;;;;;5051307;28;20489;-86
2022/10/27 07:16:21;;;;;;;3.22;1.88;;;;;;;;;;5052501;28;20052;-85
2022/10/27 07:18:48;;;;;;;2.92;2.72;;;;;;;;;;5074892;28;20117;-85
2022/10/27 07:21:14;;;;;;;2.40;2.20;;;;;;;;;;5071230;28;20577;-86
2022/10/27 07:23:41;;;;;;;3.83;3.50;;;;;;;;;;5071032;28;20049;-86
2022/10/27 07:26:07;;;;;;;3.53;3.20;;;;;;;;;;5071382;28;20048;-86
2022/10/27 07:28:34;;;;;;;2.85;1.83;;;;;;;;;;5070828;28;20110;-86
2022/10/27 07:31:02;;;;;;;1.85;1.73;;;;;;;;;;5071099;28;20480;-86
2022/10/27 07:33:28;;;;;;;2.90;2.70;;;;;;;;;;5069917;28;20060;-86
2022/10/27 07:35:55;;;;;;;3.08;2.65;;;;;;;;;;5070986;28;20478;-86
2022/10/27 07:38:21;;;;;;;2.83;2.65;;;;;;;;;;5071242;28;20048;-86
2022/10/27 07:40:49;;;;;;;4.18;3.53;;;;;;;;;;5071118;28;20056;-86
2022/10/27 07:43:15;;;;;;;2.35;1.45;;;;;;;;;;5070941;28;20458;-86
2022/10/27 07:45:42;;;;;;;2.75;2.58;;;;;;;;;;5071177;28;20048;-86
2022/10/27 07:48:11;;;;;;;2.60;2.42;;;;;;;;;;5070367;28;20114;-86
2022/10/27 07:50:38;;;;;;;3.33;3.13;;;;;;;;;;5071113;28;20048;-86
2022/10/27 07:53:04;;;;;;;4.55;4.25;;;;;;;;;;5070761;28;20608;-86
2022/10/27 07:55:32;;;;;;;4.43;4.20;;;;;;;;;;5071309;28;20045;-86
2022/10/27 07:57:59;;;;;;;3.00;2.80;;;;;;;;;;5070644;28;20386;-86
2022/10/27 08:00:25;;;;;;;2.60;2.40;;;;;;;;;;5070524;28;20043;-86
2022/10/27 08:02:52;;;;;;;3.28;3.08;;;;;;;;;;5069911;28;20098;-85
2022/10/27 08:05:20;;;;;;;2.30;2.17;;;;;;;;;;5071207;28;20150;-86
2022/10/27 08:07:46;;;;;;;3.60;3.40;;;;;;;;;;5070405;28;20732;-86
2022/10/27 08:10:13;;;;;;;3.47;3.25;;;;;;;;;;5071073;28;20045;-86
2022/10/27 08:12:41;;;;;;;4.25;4.03;;;;;;;;;;5070327;28;20394;-86
2022/10/27 08:15:08;;;;;;;3.70;3.40;;;;;;;;;;5070645;28;20114;-85
2022/10/27 08:17:34;;;;;;;2.03;1.90;;;;;;;;;;5070233;28;20117;-86
2022/10/27 08:20:01;;;;;;;3.03;2.72;;;;;;;;;;5071045;28;20106;-86
2022/10/27 08:22:29;;;;;;;2.15;2.05;;;;;;;;;;5070471;28;20044;-85
2022/10/27 08:24:55;;;;;;;2.60;2.28;;;;;;;;;;5071001;28;20049;-85
2022/10/27 08:27:22;;;;;;;1.92;1.83;;;;;;;;;;5070346;28;20049;-86
2022/10/27 08:29:48;;;;;;;4.93;4.55;;;;;;;;;;5071546;28;20044;-86
2022/10/27 08:32:15;;;;;;;2.58;2.45;;;;;;;;;;5073748;28;20098;-86
2022/10/27 08:34:41;;;;;;;3.63;3.33;;;;;;;;;;5074159;28;20044;-86
2022/10/27 08:37:08;;;;;;;4.05;3.75;;;;;;;;;;5074105;28;20098;-86
2022/10/27 08:39:36;;;;;;;3.47;3.17;;;;;;;;;;5074068;28;20519;-86
2022/10/27 08:42:05;;;;;;;3.03;2.83;;;;;;;;;;5074146;28;20049;-86
2022/10/27 08:44:32;;;;;;;2.80;2.60;;;;;;;;;;5073647;28;20052;-85
2022/10/27 08:47:02;;;;;;;2.92;2.60;;;;;;;;;;5074167;28;20118;-86
2022/10/27 08:49:29;;;;;;;;;;;;;;;;;;5074342;28;20053;-85
2022/10/27 08:51:59;;;;;;;3.80;3.47;;;;;;;;;;5074072;28;19920;-85
2022/10/27 08:54:26;;;;;;;3.50;2.90;;;;;;;;;;5073610;28;20049;-85
2022/10/27 08:56:56;;;;;;;1.88;1.77;;;;;;;;;;5073836;28;20052;-85
2022/10/27 08:59:24;;;;;;;3.83;3.53;;;;;;;;;;5073834;28;20052;-85
2022/10/27 09:01:56;;;;;;;4.57;4.10;;;;;;;;;;5073697;28;20102;-85
2022/10/27 09:04:26;;;;;;;3.30;3.00;;;;;;;;;;5073523;28;20045;-85
2022/10/27 09:06:58;;;;;;;3.72;3.47;;;;;;;;;;5073716;28;20122;-85
2022/10/27 09:09:27;;;;;;;3.47;3.28;;;;;;;;;;5073643;28;20102;-85
2022/10/27 09:11:58;;;;;;;5.05;4.75;;;;;;;;;;5073456;28;20098;-85
2022/10/27 09:14:31;;;;;;;6.40;2.28;;;;;;;;;;5072970;28;20056;-85
2022/10/27 09:17:01;;;;;;;3.20;2.92;;;;;;;;;;5072842;28;20094;-85
2022/10/27 09:19:31;;;;;;;7.65;3.35;;;;;;;;;;5073254;28;20102;-85
2022/10/27 09:21:58;;;;;;;4.22;3.63;;;;;;;;;;5073773;28;20094;-84
2022/10/27 09:24:28;;;;;;;4.30;3.90;;;;;;;;;;5072791;28;20085;-85
2022/10/27 09:26:54;;;;;;;2.20;2.00;;;;;;;;;;5073570;28;20053;-84
2022/10/27 09:29:23;;;;;;;5.60;3.15;;;;;;;;;;5072796;28;20570;-84
2022/10/27 09:31:54;;;;;;;2.65;2.45;;;;;;;;;;5072703;28;20554;-83
2022/10/27 09:34:23;;;;;;;4.18;3.88;;;;;;;;;;5072944;28;20459;-84
2022/10/27 09:36:50;;;;;;;4.38;4.13;;;;;;;;;;5072908;28;20173;-84
2022/10/27 09:39:16;;;;;;;8.43;3.63;;;;;;;;;;5072743;28;20052;-84
2022/10/27 09:41:43;;;;;;;6.82;5.38;;;;;;;;;;5073282;28;20110;-84
2022/10/27 09:44:17;;;;;;;3.67;3.33;;;;;;;;;;5060111;28;20053;-84
2022/10/27 09:46:45;;;;;;;3.70;3.40;;;;;;;;;;5052810;28;20056;-85
2022/10/27 09:49:12;;;;;;;3.72;3.42;;;;;;;;;;5052850;28;20137;-84
2022/10/27 09:51:42;;;;;;;2.97;2.78;;;;;;;;;;5052851;28;20107;-84
2022/10/27 09:54:27;;;;;;;3.88;3.42;;;;;;;;;;5052604;28;20049;-84
2022/10/27 09:56:54;;;;;;;11.23;3.58;;;;;;;;;;5052844;28;20049;-84
2022/10/27 09:59:21;;;;;;;4.63;3.72;;;;;;;;;;5052390;28;20423;-85
2022/10/27 10:01:56;;;;;;;6.97;3.28;;;;;;;;;;5052432;28;20049;-85
2022/10/27 10:04:23;;;;;;;3.17;2.88;;;;;;;;;;5053426;28;20048;-86
2022/10/27 10:06:53;;;;;;;2.80;2.60;;;;;;;;;;5052246;28;20056;-86
2022/10/27 10:09:24;;;;;;;5.30;5.00;;;;;;;;;;5052243;28;20053;-85
2022/10/27 10:11:51;;;;;;;3.25;3.03;;;;;;;;;;5051263;28;20091;-85
2022/10/27 10:14:22;;;;;;;4.28;3.88;;;;;;;;;;5052332;28;20048;-85
2022/10/27 10:16:50;;;;;;;3.83;3.53;;;;;;;;;;5051816;28;20068;-85
2022/10/27 10:19:18;;;;;;;5.68;5.30;;;;;;;;;;5052082;28;20759;-85
2022/10/27 10:21:47;;;;;;;11.48;4.78;;;;;;;;;;5052457;28;20445;-85
2022/10/27 10:24:16;;;;;;;6.60;4.43;;;;;;;;;;5052286;28;20053;-85
2022/10/27 10:26:45;;;;;;;8.43;5.78;;;;;;;;;;5051905;28;20464;-86
2022/10/27 10:29:14;;;;;;;3.40;3.20;;;;;;;;;;5051875;28;20056;-86
2022/10/27 10:31:41;;;;;;;5.10;4.78;;;;;;;;;;5051559;28;20045;-86
2022/10/27 10:34:26;;;;;;;4.88;4.38;;;;;;;;;;5051909;28;20098;-86
2022/10/27 10:36:52;;;;;;;3.72;3.42;;;;;;;;;;5051786;28;20049;-85
2022/10/27 10:39:23;;;;;;;4.20;3.90;;;;;;;;;;5051674;28;20577;-86
2022/10/27 10:42:10;;;;;;;4.72;4.32;;;;;;;;;;5051308;28;20106;-85
2022/10/27 10:44:37;;;;;;;6.00;5.68;;;;;;;;;;5051849;28;20479;-85
2022/10/27 10:47:04;;;;;;;4.45;4.15;;;;;;;;;;5052130;28;20335;-86
2022/10/27 10:49:33;;;;;;;5.03;4.15;;;;;;;;;;5051446;28;20110;-85
2022/10/27 10:52:00;;;;;;;6.80;6.32;;;;;;;;;;5051508;28;20530;-86
2022/10/27 10:54:28;;;;;;;5.10;4.70;;;;;;;;;;5051640;28;20103;-86
2022/10/27 10:56:55;;;;;;;5.95;5.63;;;;;;;;;;5051323;28;20106;-85
2022/10/27 10:59:24;;;;;;;7.50;7.00;;;;;;;;;;5051059;28;20079;-86
2022/10/27 11:01:52;;;;;;;6.70;6.20;;;;;;;;;;5051439;28;20079;-86
2022/10/27 11:04:21;;;;;;;5.78;5.40;;;;;;;;;;5051299;28;20111;-85
2022/10/27 11:07:01;;;;;;;7.85;7.32;;;;;;;;;;5051698;28;20053;-86
2022/10/27 11:09:29;;;;;;;6.45;5.40;;;;;;;;;;5051365;28;20496;-86
2022/10/27 11:11:56;;;;;;;6.18;5.78;;;;;;;;;;5051315;28;20052;-86
2022/10/27 11:14:24;;;;;;;4.57;4.28;;;;;;;;;;5051216;28;20531;-86
2022/10/27 11:16:52;;;;;;;5.53;5.10;;;;;;;;;;5051181;28;20052;-86
2022/10/27 11:19:20;;;;;;;6.50;6.07;;;;;;;;;;5051071;28;20087;-86
2022/10/27 11:21:50;;;;;;;7.78;7.35;;;;;;;;;;5051188;28;20428;-86
2022/10/27 11:24:20;;;;;;;8.13;7.35;;;;;;;;;;5051018;28;20505;-86
2022/10/27 11:26:50;;;;;;;6.30;5.80;;;;;;;;;;5051291;28;20049;-87
2022/10/27 11:29:16;;;;;;;;;;;;;;;;;;5051328;28;20098;-86
2022/10/27 11:31:48;;;;;;;6.57;6.20;;;;;;;;;;5050876;28;19924;-86
2022/10/27 11:34:18;;;;;;;6.60;6.10;;;;;;;;;;5051528;28;20045;-86
2022/10/27 11:36:48;;;;;;;7.93;7.35;;;;;;;;;;5051478;28;20114;-86
2022/10/27 11:39:17;;;;;;;9.35;8.73;;;;;;;;;;5051251;28;20102;-87
2022/10/27 11:41:47;;;;;;;8.15;7.55;;;;;;;;;;5051337;28;20057;-87
2022/10/27 11:44:18;;;;;;;6.32;5.82;;;;;;;;;;5050726;28;20057;-86
2022/10/27 11:46:47;;;;;;;6.72;6.22;;;;;;;;;;5051145;28;20045;-87
2022/10/27 11:49:17;;;;;;;6.40;5.80;;;;;;;;;;5051462;28;20053;-87
2022/10/27 11:51:45;;;;;;;4.88;4.55;;;;;;;;;;5050992;28;20053;-86
2022/10/27 11:54:11;;;;;;;6.80;6.25;;;;;;;;;;5051270;28;20045;-86
2022/10/27 11:56:44;;;;;;;8.07;7.60;;;;;;;;;;5051046;28;20489;-86
2022/10/27 11:59:20;;;;;;;7.78;7.18;;;;;;;;;;5050791;28;20045;-86
2022/10/27 12:01:53;;;;;;;7.32;6.80;;;;;;;;;;5051340;28;20467;-86
2022/10/27 12:04:24;;;;;;;5.80;5.43;;;;;;;;;;5050527;28;20481;-86
2022/10/27 12:06:56;;;;;;;6.25;5.38;;;;;;;;;;5054862;28;20052;-86
2022/10/27 12:09:28;;;;;;;6.07;5.78;;;;;;;;;;5055059;28;20051;-86
2022/10/27 12:11:59;;;;;;;7.97;7.57;;;;;;;;;;5055028;28;20053;-86
2022/10/27 12:14:30;;;;;;;5.28;4.90;;;;;;;;;;5054609;28;20053;-87
2022/10/27 12:17:01;;;;;;;12.18;11.48;;;;;;;;;;5054379;28;20049;-86
2022/10/27 12:19:29;;;;;;;8.85;8.45;;;;;;;;;;5054552;28;20052;-87
2022/10/27 12:21:57;;;;;;;7.03;6.60;;;;;;;;;;5053847;28;20049;-87
2022/10/27 12:24:28;;;;;;;8.25;6.10;;;;;;;;;;5055471;28;20182;-86
2022/10/27 12:26:56;;;;;;;7.53;7.03;;;;;;;;;;5071669;28;20397;-86
2022/10/27 12:29:24;;;;;;;7.40;6.10;;;;;;;;;;5073442;28;20056;-86
2022/10/27 12:31:55;;;;;;;9.75;9.35;;;;;;;;;;5074178;28;20443;-86
2022/10/27 12:34:22;;;;;;;5.93;5.50;;;;;;;;;;5073542;28;20045;-86
2022/10/27 12:36:52;;;;;;;6.88;6.45;;;;;;;;;;5074331;28;20129;-86
2022/10/27 12:39:19;;;;;;;;;;;;;;;;;;5074558;28;20129;-86
2022/10/27 12:41:48;;;;;;;5.03;4.82;;;;;;;;;;5074140;28;19920;-86
2022/10/27 12:44:21;;;;;;;6.68;6.38;;;;;;;;;;5073623;28;20110;-87
2022/10/27 12:46:58;;;;;;;6.93;6.55;;;;;;;;;;5073647;28;20098;-86
2022/10/27 12:49:27;;;;;;;7.15;6.80;;;;;;;;;;5073814;28;20044;-86
2022/10/27 12:51:59;;;;;;;7.03;6.65;;;;;;;;;;5073908;28;20048;-86
2022/10/27 12:54:36;;;;;;;5.25;4.85;;;;;;;;;;5074014;28;20040;-86
2022/10/27 12:57:11;;;;;;;6.57;6.18;;;;;;;;;;5073873;28;20082;-86
2022/10/27 12:59:45;;;;;;;6.28;5.90;;;;;;;;;;5073123;28;20056;-86
2022/10/27 13:02:13;;;;;;;8.45;7.85;;;;;;;;;;5073217;28;20518;-86
2022/10/27 13:04:48;;;;;;;7.35;6.75;;;;;;;;;;5073357;28;20106;-86
2022/10/27 13:07:31;;;;;;;5.15;4.85;;;;;;;;;;5073900;28;20056;-86
2022/10/27 13:10:07;;;;;;;7.05;6.75;;;;;;;;;;5073295;28;20049;-86
2022/10/27 13:12:40;;;;;;;6.82;6.32;;;;;;;;;;5073676;28;20116;-86
2022/10/27 13:15:24;;;;;;;5.35;4.88;;;;;;;;;;5072631;28;20094;-86
2022/10/27 13:17:56;;;;;;;6.55;5.97;;;;;;;;;;5073155;28;20463;-86
2022/10/27 13:20:32;;;;;;;4.72;4.43;;;;;;;;;;5073190;28;20048;-86
2022/10/27 13:23:01;;;;;;;4.68;4.38;;;;;;;;;;5073473;28;20056;-85
2022/10/27 13:25:30;;;;;;;5.97;5.32;;;;;;;;;;5072965;28;20053;-85
2022/10/27 13:27:59;;;;;;;6.50;6.18;;;;;;;;;;5073180;28;20118;-85
2022/10/27 13:30:28;;;;;;;6.53;6.13;;;;;;;;;;5072731;28;20459;-85
2022/10/27 13:32:56;;;;;;;5.18;4.85;;;;;;;;;;5073031;28;20113;-85
2022/10/27 13:35:27;;;;;;;7.22;6.55;;;;;;;;;;5062569;28;20538;-85
2022/10/27 13:38:09;;;;;;;6.38;6.00;;;;;;;;;;5061277;28;20048;-85
2022/10/27 13:40:36;;;;;;;6.30;5.90;;;;;;;;;;5072211;28;20048;-86
2022/10/27 13:43:18;;;;;;;5.43;5.03;;;;;;;;;;5072667;28;20086;-85
2022/10/27 13:45:48;;;;;;;4.80;4.40;;;;;;;;;;5059762;28;20126;-85
2022/10/27 13:48:29;;;;;;;5.75;5.43;;;;;;;;;;5061728;28;20044;-85
2022/10/27 13:50:59;;;;;;;6.20;5.70;;;;;;;;;;5058303;28;20044;-85
2022/10/27 13:53:32;;;;;;;8.63;8.13;;;;;;;;;;5052609;28;20485;-85
2022/10/27 13:56:00;;;;;;;7.45;6.72;;;;;;;;;;5066357;28;20101;-86
2022/10/27 13:58:43;;;;;;;4.85;4.55;;;;;;;;;;5072585;28;20136;-85
2022/10/27 14:01:27;;;;;;;4.47;4.15;;;;;;;;;;5072177;28;20558;-85
2022/10/27 14:04:11;;;;;;;7.18;6.80;;;;;;;;;;5072517;28;20455;-85
2022/10/27 14:06:40;;;;;;;5.75;5.32;;;;;;;;;;5071763;28;20048;-85
2022/10/27 14:09:24;;;;;;;7.30;6.88;;;;;;;;;;5058738;28;20060;-85
2022/10/27 14:11:51;;;;;;;6.15;5.82;;;;;;;;;;5052232;28;20079;-85
2022/10/27 14:14:21;;;;;;;5.00;4.68;;;;;;;;;;5052016;28;20110;-86
2022/10/27 14:16:48;;;;;;;5.30;5.00;;;;;;;;;;5071727;28;20110;-86
2022/10/27 14:19:16;;;;;;;6.35;5.95;;;;;;;;;;5072532;28;20110;-86
2022/10/27 14:21:46;;;;;;;4.10;3.90;;;;;;;;;;5071996;28;20492;-86
2022/10/27 14:24:15;;;;;;;6.20;4.55;;;;;;;;;;5062149;28;20049;-87
2022/10/27 14:26:42;;;;;;;3.90;3.70;;;;;;;;;;5052263;28;20049;-87
2022/10/27 14:29:17;;;;;;;4.07;3.88;;;;;;;;;;5051109;28;20123;-87
2022/10/27 14:31:44;;;;;;;5.63;5.28;;;;;;;;;;5066700;28;20052;-87
2022/10/27 14:34:15;;;;;;;3.65;3.45;;;;;;;;;;5072073;28;20049;-86
2022/10/27 14:36:41;;;;;;;4.68;4.40;;;;;;;;;;5054164;28;20103;-86
2022/10/27 14:39:20;;;;;;;4.43;4.13;;;;;;;;;;5051839;28;20127;-86
2022/10/27 14:41:48;;;;;;;3.95;3.75;;;;;;;;;;5051764;28;20049;-86
2022/10/27 14:44:16;;;;;;;5.60;3.92;;;;;;;;;;5051379;28;20485;-86
2022/10/27 14:46:44;;;;;;;5.07;4.88;;;;;;;;;;5051915;28;20131;-87
2022/10/27 14:49:15;;;;;;;3.95;3.75;;;;;;;;;;5051667;28;20135;-86
2022/10/27 14:51:42;;;;;;;4.50;3.80;;;;;;;;;;5051702;28;20049;-86